Terminal Aerodrome Forecast
Issued by NWS

Home | Current Version | Previous Version | Text Only | Print | Product List | Glossary On
Versions: 1 2 3 4 5 6 7 8 9 10 11 12 13 14
000
FTUS44 KTSA 302300
TAFXNA
TAF
KXNA 302323Z 3100/3124 06005KT 4SM -RA OVC015
      TEMPO 3100/3104 1SM +RA BR BKN007
     FM310400 VRB03KT 3SM -RA BR BKN015
     FM310700 VRB03KT 2SM -RA BR BKN006
     FM311500 12005KT 5SM -RA BR BKN015
     FM311700 12005KT P6SM BKN025=

USA.gov is the U.S. government's official web portal to all federal, state and local government web resources and services.